sensor_id;sensor_type;location;lat;lon;timestamp;P1;durP1;ratioP1;P2;durP2;ratioP2
6463;SDS011;3265;42.694;23.282;2023-07-13T00:02:19;40.15;;;19.00;;
6463;SDS011;3265;42.694;23.282;2023-07-13T00:04:46;37.03;;;18.52;;
6463;SDS011;3265;42.694;23.282;2023-07-13T00:07:12;29.23;;;17.73;;
6463;SDS011;3265;42.694;23.282;2023-07-13T00:09:39;40.13;;;20.17;;
6463;SDS011;3265;42.694;23.282;2023-07-13T00:12:21;39.15;;;21.48;;
6463;SDS011;3265;42.694;23.282;2023-07-13T00:14:49;41.25;;;21.10;;
6463;SDS011;3265;42.694;23.282;2023-07-13T00:17:16;31.77;;;16.55;;
6463;SDS011;3265;42.694;23.282;2023-07-13T00:19:44;26.92;;;15.00;;
6463;SDS011;3265;42.694;23.282;2023-07-13T00:22:11;30.25;;;15.65;;
6463;SDS011;3265;42.694;23.282;2023-07-13T00:24:38;28.65;;;14.82;;
6463;SDS011;3265;42.694;23.282;2023-07-13T00:27:07;25.92;;;13.32;;
6463;SDS011;3265;42.694;23.282;2023-07-13T00:29:34;25.65;;;12.43;;
6463;SDS011;3265;42.694;23.282;2023-07-13T00:32:01;20.90;;;10.85;;
6463;SDS011;3265;42.694;23.282;2023-07-13T00:34:28;18.45;;;9.57;;
6463;SDS011;3265;42.694;23.282;2023-07-13T00:36:57;18.33;;;8.60;;
6463;SDS011;3265;42.694;23.282;2023-07-13T00:39:24;14.65;;;8.05;;
6463;SDS011;3265;42.694;23.282;2023-07-13T00:41:51;15.15;;;8.23;;
6463;SDS011;3265;42.694;23.282;2023-07-13T00:44:18;11.63;;;7.45;;
6463;SDS011;3265;42.694;23.282;2023-07-13T00:46:46;11.77;;;7.05;;
6463;SDS011;3265;42.694;23.282;2023-07-13T00:49:13;11.45;;;7.07;;
6463;SDS011;3265;42.694;23.282;2023-07-13T00:51:43;14.30;;;8.45;;
6463;SDS011;3265;42.694;23.282;2023-07-13T00:54:17;12.65;;;7.50;;
6463;SDS011;3265;42.694;23.282;2023-07-13T00:57:00;16.08;;;7.78;;
6463;SDS011;3265;42.694;23.282;2023-07-13T00:59:31;12.57;;;7.85;;
6463;SDS011;3265;42.694;23.282;2023-07-13T01:01:58;16.25;;;9.00;;
6463;SDS011;3265;42.694;23.282;2023-07-13T01:04:25;16.73;;;8.32;;
6463;SDS011;3265;42.694;23.282;2023-07-13T01:06:53;14.48;;;8.00;;
6463;SDS011;3265;42.694;23.282;2023-07-13T01:09:21;12.88;;;8.23;;
6463;SDS011;3265;42.694;23.282;2023-07-13T01:11:48;14.20;;;8.85;;
6463;SDS011;3265;42.694;23.282;2023-07-13T01:14:15;18.13;;;8.35;;
6463;SDS011;3265;42.694;23.282;2023-07-13T01:16:43;12.95;;;8.25;;
6463;SDS011;3265;42.694;23.282;2023-07-13T01:19:16;16.15;;;8.68;;
6463;SDS011;3265;42.694;23.282;2023-07-13T01:22:02;14.05;;;8.65;;
6463;SDS011;3265;42.694;23.282;2023-07-13T01:24:33;14.05;;;8.85;;
6463;SDS011;3265;42.694;23.282;2023-07-13T01:27:01;13.38;;;9.00;;
6463;SDS011;3265;42.694;23.282;2023-07-13T01:29:28;16.73;;;9.43;;
6463;SDS011;3265;42.694;23.282;2023-07-13T01:31:56;23.77;;;10.63;;
6463;SDS011;3265;42.694;23.282;2023-07-13T01:34:23;17.33;;;9.50;;
6463;SDS011;3265;42.694;23.282;2023-07-13T01:36:50;14.50;;;10.35;;
6463;SDS011;3265;42.694;23.282;2023-07-13T01:39:20;26.00;;;9.68;;
6463;SDS011;3265;42.694;23.282;2023-07-13T01:41:47;18.40;;;9.60;;
6463;SDS011;3265;42.694;23.282;2023-07-13T01:44:14;18.02;;;9.90;;
6463;SDS011;3265;42.694;23.282;2023-07-13T01:46:41;16.48;;;9.63;;
6463;SDS011;3265;42.694;23.282;2023-07-13T01:49:08;15.65;;;9.40;;
6463;SDS011;3265;42.694;23.282;2023-07-13T01:51:35;15.13;;;10.15;;
6463;SDS011;3265;42.694;23.282;2023-07-13T01:54:02;18.25;;;9.23;;
6463;SDS011;3265;42.694;23.282;2023-07-13T01:56:30;20.67;;;8.93;;
6463;SDS011;3265;42.694;23.282;2023-07-13T01:58:57;20.50;;;8.73;;
6463;SDS011;3265;42.694;23.282;2023-07-13T02:01:24;17.17;;;8.80;;
6463;SDS011;3265;42.694;23.282;2023-07-13T02:03:50;17.08;;;8.60;;
6463;SDS011;3265;42.694;23.282;2023-07-13T02:06:17;17.65;;;8.68;;
6463;SDS011;3265;42.694;23.282;2023-07-13T02:08:44;13.30;;;8.02;;
6463;SDS011;3265;42.694;23.282;2023-07-13T02:11:11;16.67;;;8.65;;
6463;SDS011;3265;42.694;23.282;2023-07-13T02:13:39;13.13;;;8.98;;
6463;SDS011;3265;42.694;23.282;2023-07-13T02:16:06;12.93;;;8.50;;
6463;SDS011;3265;42.694;23.282;2023-07-13T02:18:33;11.68;;;8.95;;
6463;SDS011;3265;42.694;23.282;2023-07-13T02:21:00;14.73;;;9.00;;
6463;SDS011;3265;42.694;23.282;2023-07-13T02:23:27;15.52;;;9.45;;
6463;SDS011;3265;42.694;23.282;2023-07-13T02:25:55;16.65;;;9.02;;
6463;SDS011;3265;42.694;23.282;2023-07-13T02:28:22;18.73;;;9.65;;
6463;SDS011;3265;42.694;23.282;2023-07-13T02:30:50;15.88;;;9.85;;
6463;SDS011;3265;42.694;23.282;2023-07-13T02:33:17;17.42;;;9.40;;
6463;SDS011;3265;42.694;23.282;2023-07-13T02:35:44;15.80;;;9.48;;
6463;SDS011;3265;42.694;23.282;2023-07-13T02:38:10;16.20;;;9.27;;
6463;SDS011;3265;42.694;23.282;2023-07-13T02:40:37;19.35;;;10.68;;
6463;SDS011;3265;42.694;23.282;2023-07-13T02:43:04;14.07;;;9.13;;
6463;SDS011;3265;42.694;23.282;2023-07-13T02:45:31;15.55;;;9.30;;
6463;SDS011;3265;42.694;23.282;2023-07-13T02:47:59;18.98;;;9.55;;
6463;SDS011;3265;42.694;23.282;2023-07-13T02:50:26;13.63;;;8.98;;
6463;SDS011;3265;42.694;23.282;2023-07-13T02:52:53;16.08;;;8.90;;
6463;SDS011;3265;42.694;23.282;2023-07-13T02:55:19;13.52;;;8.38;;
6463;SDS011;3265;42.694;23.282;2023-07-13T02:57:46;15.75;;;9.15;;
6463;SDS011;3265;42.694;23.282;2023-07-13T03:00:14;20.85;;;9.02;;
6463;SDS011;3265;42.694;23.282;2023-07-13T03:02:41;14.55;;;8.80;;
6463;SDS011;3265;42.694;23.282;2023-07-13T03:05:09;11.90;;;8.60;;
6463;SDS011;3265;42.694;23.282;2023-07-13T03:07:38;13.55;;;9.02;;
6463;SDS011;3265;42.694;23.282;2023-07-13T03:10:05;18.30;;;8.82;;
6463;SDS011;3265;42.694;23.282;2023-07-13T03:12:32;17.73;;;9.60;;
6463;SDS011;3265;42.694;23.282;2023-07-13T03:14:59;15.80;;;10.75;;
6463;SDS011;3265;42.694;23.282;2023-07-13T03:17:26;16.55;;;10.55;;
6463;SDS011;3265;42.694;23.282;2023-07-13T03:19:53;22.30;;;10.75;;
6463;SDS011;3265;42.694;23.282;2023-07-13T03:22:21;15.55;;;9.50;;
6463;SDS011;3265;42.694;23.282;2023-07-13T03:24:48;18.70;;;10.20;;
6463;SDS011;3265;42.694;23.282;2023-07-13T03:27:16;18.95;;;10.18;;
6463;SDS011;3265;42.694;23.282;2023-07-13T03:29:44;15.82;;;10.60;;
6463;SDS011;3265;42.694;23.282;2023-07-13T03:32:11;19.17;;;9.88;;
6463;SDS011;3265;42.694;23.282;2023-07-13T03:34:37;18.73;;;10.02;;
6463;SDS011;3265;42.694;23.282;2023-07-13T03:37:04;20.30;;;10.43;;
6463;SDS011;3265;42.694;23.282;2023-07-13T03:39:33;29.10;;;10.30;;
6463;SDS011;3265;42.694;23.282;2023-07-13T03:42:00;30.60;;;10.75;;
6463;SDS011;3265;42.694;23.282;2023-07-13T03:44:27;22.90;;;10.10;;
6463;SDS011;3265;42.694;23.282;2023-07-13T03:46:53;21.42;;;10.38;;
6463;SDS011;3265;42.694;23.282;2023-07-13T03:49:20;18.55;;;11.13;;
6463;SDS011;3265;42.694;23.282;2023-07-13T03:51:47;23.70;;;10.68;;
6463;SDS011;3265;42.694;23.282;2023-07-13T03:54:14;20.65;;;11.07;;
6463;SDS011;3265;42.694;23.282;2023-07-13T03:56:42;20.70;;;11.02;;
6463;SDS011;3265;42.694;23.282;2023-07-13T03:59:09;17.70;;;10.60;;
6463;SDS011;3265;42.694;23.282;2023-07-13T04:01:36;18.35;;;10.27;;
6463;SDS011;3265;42.694;23.282;2023-07-13T04:04:03;22.92;;;11.75;;
6463;SDS011;3265;42.694;23.282;2023-07-13T04:06:30;23.73;;;11.98;;
6463;SDS011;3265;42.694;23.282;2023-07-13T04:08:58;18.70;;;11.02;;
6463;SDS011;3265;42.694;23.282;2023-07-13T04:11:27;28.98;;;11.93;;
6463;SDS011;3265;42.694;23.282;2023-07-13T04:13:58;19.48;;;11.05;;
6463;SDS011;3265;42.694;23.282;2023-07-13T04:16:25;21.02;;;11.27;;
6463;SDS011;3265;42.694;23.282;2023-07-13T04:18:52;16.73;;;11.20;;
6463;SDS011;3265;42.694;23.282;2023-07-13T04:21:24;17.27;;;11.82;;
6463;SDS011;3265;42.694;23.282;2023-07-13T04:23:51;18.60;;;11.68;;
6463;SDS011;3265;42.694;23.282;2023-07-13T04:26:18;17.55;;;11.23;;
6463;SDS011;3265;42.694;23.282;2023-07-13T04:28:46;18.20;;;11.52;;
6463;SDS011;3265;42.694;23.282;2023-07-13T04:31:14;23.63;;;12.45;;
6463;SDS011;3265;42.694;23.282;2023-07-13T04:33:41;23.27;;;11.90;;
6463;SDS011;3265;42.694;23.282;2023-07-13T04:36:08;17.50;;;10.85;;
6463;SDS011;3265;42.694;23.282;2023-07-13T04:38:35;16.20;;;11.10;;
6463;SDS011;3265;42.694;23.282;2023-07-13T04:41:03;24.25;;;11.18;;
6463;SDS011;3265;42.694;23.282;2023-07-13T04:43:32;17.27;;;10.45;;
6463;SDS011;3265;42.694;23.282;2023-07-13T04:46:03;17.95;;;10.68;;
6463;SDS011;3265;42.694;23.282;2023-07-13T04:48:33;17.20;;;10.38;;
6463;SDS011;3265;42.694;23.282;2023-07-13T04:51:00;19.42;;;10.95;;
6463;SDS011;3265;42.694;23.282;2023-07-13T04:53:28;16.92;;;11.50;;
6463;SDS011;3265;42.694;23.282;2023-07-13T04:55:55;17.77;;;10.88;;
6463;SDS011;3265;42.694;23.282;2023-07-13T04:58:23;17.30;;;10.27;;
6463;SDS011;3265;42.694;23.282;2023-07-13T05:00:50;20.58;;;10.85;;
6463;SDS011;3265;42.694;23.282;2023-07-13T05:03:17;23.30;;;10.95;;
6463;SDS011;3265;42.694;23.282;2023-07-13T05:05:53;32.17;;;11.85;;
6463;SDS011;3265;42.694;23.282;2023-07-13T05:08:21;24.98;;;11.45;;
6463;SDS011;3265;42.694;23.282;2023-07-13T05:10:48;23.45;;;11.52;;
6463;SDS011;3265;42.694;23.282;2023-07-13T05:13:14;26.02;;;11.60;;
6463;SDS011;3265;42.694;23.282;2023-07-13T05:15:41;17.95;;;11.43;;
6463;SDS011;3265;42.694;23.282;2023-07-13T05:18:08;20.48;;;11.57;;
6463;SDS011;3265;42.694;23.282;2023-07-13T05:20:35;17.67;;;10.77;;
6463;SDS011;3265;42.694;23.282;2023-07-13T05:23:03;16.35;;;10.15;;
6463;SDS011;3265;42.694;23.282;2023-07-13T05:25:30;21.30;;;10.38;;
6463;SDS011;3265;42.694;23.282;2023-07-13T05:27:57;25.70;;;10.98;;
6463;SDS011;3265;42.694;23.282;2023-07-13T05:30:23;23.98;;;11.35;;
6463;SDS011;3265;42.694;23.282;2023-07-13T05:32:50;18.33;;;10.13;;
6463;SDS011;3265;42.694;23.282;2023-07-13T05:35:17;17.67;;;10.80;;
6463;SDS011;3265;42.694;23.282;2023-07-13T05:37:44;17.80;;;10.43;;
6463;SDS011;3265;42.694;23.282;2023-07-13T05:40:12;19.00;;;10.40;;
6463;SDS011;3265;42.694;23.282;2023-07-13T05:42:39;21.08;;;10.63;;
6463;SDS011;3265;42.694;23.282;2023-07-13T05:45:06;19.33;;;11.63;;
6463;SDS011;3265;42.694;23.282;2023-07-13T05:47:34;22.63;;;12.15;;
6463;SDS011;3265;42.694;23.282;2023-07-13T05:50:01;18.40;;;11.45;;
6463;SDS011;3265;42.694;23.282;2023-07-13T05:52:27;27.30;;;12.77;;
6463;SDS011;3265;42.694;23.282;2023-07-13T05:54:54;21.30;;;12.40;;
6463;SDS011;3265;42.694;23.282;2023-07-13T05:57:23;18.67;;;12.50;;
6463;SDS011;3265;42.694;23.282;2023-07-13T05:59:50;25.55;;;12.00;;
6463;SDS011;3265;42.694;23.282;2023-07-13T06:02:16;23.38;;;12.02;;
6463;SDS011;3265;42.694;23.282;2023-07-13T06:04:43;20.35;;;11.38;;
6463;SDS011;3265;42.694;23.282;2023-07-13T06:07:10;19.73;;;12.48;;
6463;SDS011;3265;42.694;23.282;2023-07-13T06:09:37;17.35;;;11.20;;
6463;SDS011;3265;42.694;23.282;2023-07-13T06:12:04;18.95;;;11.30;;
6463;SDS011;3265;42.694;23.282;2023-07-13T06:14:33;18.27;;;11.43;;
6463;SDS011;3265;42.694;23.282;2023-07-13T06:17:00;20.17;;;11.23;;
6463;SDS011;3265;42.694;23.282;2023-07-13T06:19:27;20.23;;;11.88;;
6463;SDS011;3265;42.694;23.282;2023-07-13T06:21:54;17.35;;;11.45;;
6463;SDS011;3265;42.694;23.282;2023-07-13T06:24:21;20.58;;;11.65;;
6463;SDS011;3265;42.694;23.282;2023-07-13T06:26:48;19.17;;;11.23;;
6463;SDS011;3265;42.694;23.282;2023-07-13T06:29:15;18.52;;;11.75;;
6463;SDS011;3265;42.694;23.282;2023-07-13T06:31:43;17.75;;;11.52;;
6463;SDS011;3265;42.694;23.282;2023-07-13T06:34:10;21.55;;;12.40;;
6463;SDS011;3265;42.694;23.282;2023-07-13T06:36:37;17.33;;;10.90;;
6463;SDS011;3265;42.694;23.282;2023-07-13T06:39:04;21.42;;;12.05;;
6463;SDS011;3265;42.694;23.282;2023-07-13T06:41:30;19.40;;;11.75;;
6463;SDS011;3265;42.694;23.282;2023-07-13T06:43:58;21.70;;;10.73;;
6463;SDS011;3265;42.694;23.282;2023-07-13T06:46:25;17.38;;;9.05;;
6463;SDS011;3265;42.694;23.282;2023-07-13T06:48:56;22.52;;;12.70;;
6463;SDS011;3265;42.694;23.282;2023-07-13T06:51:22;22.88;;;12.10;;
6463;SDS011;3265;42.694;23.282;2023-07-13T06:53:51;19.30;;;12.27;;
6463;SDS011;3265;42.694;23.282;2023-07-13T06:56:17;21.98;;;12.02;;
6463;SDS011;3265;42.694;23.282;2023-07-13T06:58:44;20.67;;;12.50;;
6463;SDS011;3265;42.694;23.282;2023-07-13T07:01:11;21.92;;;11.75;;
6463;SDS011;3265;42.694;23.282;2023-07-13T07:03:38;21.23;;;12.23;;
6463;SDS011;3265;42.694;23.282;2023-07-13T07:06:10;17.15;;;11.38;;
6463;SDS011;3265;42.694;23.282;2023-07-13T07:08:40;20.00;;;11.52;;
6463;SDS011;3265;42.694;23.282;2023-07-13T07:11:08;18.00;;;10.75;;
6463;SDS011;3265;42.694;23.282;2023-07-13T07:13:36;15.48;;;10.68;;
6463;SDS011;3265;42.694;23.282;2023-07-13T07:16:03;18.35;;;11.93;;
6463;SDS011;3265;42.694;23.282;2023-07-13T07:18:30;24.15;;;11.82;;
6463;SDS011;3265;42.694;23.282;2023-07-13T07:20:56;17.83;;;12.23;;
6463;SDS011;3265;42.694;23.282;2023-07-13T07:23:25;28.52;;;12.02;;
6463;SDS011;3265;42.694;23.282;2023-07-13T07:25:52;21.73;;;11.90;;
6463;SDS011;3265;42.694;23.282;2023-07-13T07:28:19;18.58;;;12.02;;
6463;SDS011;3265;42.694;23.282;2023-07-13T07:30:46;20.45;;;10.93;;
6463;SDS011;3265;42.694;23.282;2023-07-13T07:33:14;22.30;;;11.57;;
6463;SDS011;3265;42.694;23.282;2023-07-13T07:35:42;17.92;;;11.13;;
6463;SDS011;3265;42.694;23.282;2023-07-13T07:38:09;22.67;;;11.55;;
6463;SDS011;3265;42.694;23.282;2023-07-13T07:40:38;18.08;;;10.80;;
6463;SDS011;3265;42.694;23.282;2023-07-13T07:43:05;17.70;;;10.77;;
6463;SDS011;3265;42.694;23.282;2023-07-13T07:45:32;17.17;;;11.38;;
6463;SDS011;3265;42.694;23.282;2023-07-13T07:47:59;19.35;;;11.95;;
6463;SDS011;3265;42.694;23.282;2023-07-13T07:50:26;19.90;;;11.35;;
6463;SDS011;3265;42.694;23.282;2023-07-13T07:52:53;19.35;;;11.80;;
6463;SDS011;3265;42.694;23.282;2023-07-13T07:55:21;24.38;;;12.20;;
6463;SDS011;3265;42.694;23.282;2023-07-13T07:57:50;23.13;;;12.30;;
6463;SDS011;3265;42.694;23.282;2023-07-13T08:00:17;16.33;;;11.00;;
6463;SDS011;3265;42.694;23.282;2023-07-13T08:02:44;19.95;;;10.77;;
6463;SDS011;3265;42.694;23.282;2023-07-13T08:05:12;16.33;;;11.82;;
6463;SDS011;3265;42.694;23.282;2023-07-13T08:07:39;15.55;;;10.38;;
6463;SDS011;3265;42.694;23.282;2023-07-13T08:10:06;17.77;;;11.15;;
6463;SDS011;3265;42.694;23.282;2023-07-13T08:12:34;19.40;;;10.80;;
6463;SDS011;3265;42.694;23.282;2023-07-13T08:15:03;21.23;;;10.93;;
6463;SDS011;3265;42.694;23.282;2023-07-13T08:17:31;16.65;;;9.40;;
6463;SDS011;3265;42.694;23.282;2023-07-13T08:19:58;13.93;;;9.60;;
6463;SDS011;3265;42.694;23.282;2023-07-13T08:22:25;15.60;;;9.52;;
6463;SDS011;3265;42.694;23.282;2023-07-13T08:24:52;15.45;;;9.38;;
6463;SDS011;3265;42.694;23.282;2023-07-13T08:27:21;18.27;;;10.88;;
6463;SDS011;3265;42.694;23.282;2023-07-13T08:29:49;14.35;;;9.95;;
6463;SDS011;3265;42.694;23.282;2023-07-13T08:32:18;16.00;;;10.02;;
6463;SDS011;3265;42.694;23.282;2023-07-13T08:34:46;21.92;;;10.02;;
6463;SDS011;3265;42.694;23.282;2023-07-13T08:37:13;14.95;;;10.02;;
6463;SDS011;3265;42.694;23.282;2023-07-13T08:39:40;15.80;;;9.85;;
6463;SDS011;3265;42.694;23.282;2023-07-13T08:42:07;13.52;;;9.35;;
6463;SDS011;3265;42.694;23.282;2023-07-13T08:44:43;16.83;;;9.48;;
6463;SDS011;3265;42.694;23.282;2023-07-13T08:47:21;15.32;;;9.70;;
6463;SDS011;3265;42.694;23.282;2023-07-13T08:49:50;13.00;;;10.13;;
6463;SDS011;3265;42.694;23.282;2023-07-13T08:52:21;14.52;;;9.70;;
6463;SDS011;3265;42.694;23.282;2023-07-13T08:54:58;13.32;;;9.27;;
6463;SDS011;3265;42.694;23.282;2023-07-13T08:57:32;19.77;;;9.98;;
6463;SDS011;3265;42.694;23.282;2023-07-13T09:00:01;16.92;;;10.68;;
6463;SDS011;3265;42.694;23.282;2023-07-13T09:02:34;18.58;;;10.02;;
6463;SDS011;3265;42.694;23.282;2023-07-13T09:05:09;15.90;;;9.90;;
6463;SDS011;3265;42.694;23.282;2023-07-13T09:07:45;19.45;;;10.35;;
6463;SDS011;3265;42.694;23.282;2023-07-13T09:10:26;18.95;;;10.60;;
6463;SDS011;3265;42.694;23.282;2023-07-13T09:12:58;23.45;;;10.98;;
6463;SDS011;3265;42.694;23.282;2023-07-13T09:15:34;22.15;;;10.18;;
6463;SDS011;3265;42.694;23.282;2023-07-13T09:18:07;19.55;;;10.02;;
6463;SDS011;3265;42.694;23.282;2023-07-13T09:20:39;16.70;;;10.50;;
6463;SDS011;3265;42.694;23.282;2023-07-13T09:23:13;16.20;;;10.32;;
6463;SDS011;3265;42.694;23.282;2023-07-13T09:25:45;13.13;;;9.75;;
6463;SDS011;3265;42.694;23.282;2023-07-13T09:28:17;19.15;;;9.95;;
6463;SDS011;3265;42.694;23.282;2023-07-13T09:30:50;17.65;;;12.68;;
6463;SDS011;3265;42.694;23.282;2023-07-13T09:33:22;18.77;;;9.95;;
6463;SDS011;3265;42.694;23.282;2023-07-13T09:35:49;27.27;;;9.73;;
6463;SDS011;3265;42.694;23.282;2023-07-13T09:38:16;14.25;;;9.25;;
6463;SDS011;3265;42.694;23.282;2023-07-13T09:40:56;15.77;;;9.13;;
6463;SDS011;3265;42.694;23.282;2023-07-13T09:43:30;18.20;;;7.40;;
6463;SDS011;3265;42.694;23.282;2023-07-13T09:45:57;9.80;;;5.75;;
6463;SDS011;3265;42.694;23.282;2023-07-13T09:48:26;15.57;;;6.53;;
6463;SDS011;3265;42.694;23.282;2023-07-13T09:51:03;15.32;;;6.13;;
6463;SDS011;3265;42.694;23.282;2023-07-13T09:53:41;12.25;;;5.47;;
6463;SDS011;3265;42.694;23.282;2023-07-13T09:56:18;14.25;;;5.65;;
6463;SDS011;3265;42.694;23.282;2023-07-13T09:58:46;11.52;;;5.25;;
6463;SDS011;3265;42.694;23.282;2023-07-13T10:01:13;10.63;;;5.40;;
6463;SDS011;3265;42.694;23.282;2023-07-13T10:03:51;10.50;;;6.00;;
6463;SDS011;3265;42.694;23.282;2023-07-13T10:06:19;11.77;;;5.38;;
6463;SDS011;3265;42.694;23.282;2023-07-13T10:08:48;10.98;;;5.30;;
6463;SDS011;3265;42.694;23.282;2023-07-13T10:11:17;9.07;;;5.55;;
6463;SDS011;3265;42.694;23.282;2023-07-13T10:13:48;13.48;;;5.55;;
6463;SDS011;3265;42.694;23.282;2023-07-13T10:16:20;12.90;;;5.72;;
6463;SDS011;3265;42.694;23.282;2023-07-13T10:18:50;10.38;;;6.03;;
6463;SDS011;3265;42.694;23.282;2023-07-13T10:21:21;14.18;;;5.65;;
6463;SDS011;3265;42.694;23.282;2023-07-13T10:23:50;14.45;;;5.80;;
6463;SDS011;3265;42.694;23.282;2023-07-13T10:26:21;13.48;;;5.38;;
6463;SDS011;3265;42.694;23.282;2023-07-13T10:28:52;9.63;;;5.68;;
6463;SDS011;3265;42.694;23.282;2023-07-13T10:31:22;10.27;;;5.60;;
6463;SDS011;3265;42.694;23.282;2023-07-13T10:33:51;13.73;;;5.68;;
6463;SDS011;3265;42.694;23.282;2023-07-13T10:36:21;16.27;;;5.32;;
6463;SDS011;3265;42.694;23.282;2023-07-13T10:38:55;15.02;;;5.70;;
6463;SDS011;3265;42.694;23.282;2023-07-13T10:41:26;11.70;;;5.05;;
6463;SDS011;3265;42.694;23.282;2023-07-13T10:43:54;12.48;;;5.40;;
6463;SDS011;3265;42.694;23.282;2023-07-13T10:46:23;9.27;;;5.72;;
6463;SDS011;3265;42.694;23.282;2023-07-13T10:48:55;12.85;;;5.10;;
6463;SDS011;3265;42.694;23.282;2023-07-13T10:51:25;14.05;;;5.38;;
6463;SDS011;3265;42.694;23.282;2023-07-13T10:54:14;10.98;;;5.28;;
6463;SDS011;3265;42.694;23.282;2023-07-13T10:56:49;7.30;;;5.18;;
6463;SDS011;3265;42.694;23.282;2023-07-13T10:59:23;11.15;;;5.72;;
6463;SDS011;3265;42.694;23.282;2023-07-13T11:01:54;15.35;;;5.43;;
6463;SDS011;3265;42.694;23.282;2023-07-13T11:04:24;11.15;;;5.40;;
6463;SDS011;3265;42.694;23.282;2023-07-13T11:06:52;8.73;;;5.20;;
6463;SDS011;3265;42.694;23.282;2023-07-13T11:09:34;11.85;;;5.20;;
6463;SDS011;3265;42.694;23.282;2023-07-13T11:12:08;12.55;;;5.80;;
6463;SDS011;3265;42.694;23.282;2023-07-13T11:15:06;13.13;;;5.95;;
6463;SDS011;3265;42.694;23.282;2023-07-13T11:17:38;15.65;;;5.85;;
6463;SDS011;3265;42.694;23.282;2023-07-13T11:20:33;11.48;;;5.53;;
6463;SDS011;3265;42.694;23.282;2023-07-13T11:23:18;17.88;;;5.80;;
6463;SDS011;3265;42.694;23.282;2023-07-13T11:25:52;8.70;;;5.55;;
6463;SDS011;3265;42.694;23.282;2023-07-13T11:28:23;11.73;;;5.45;;
6463;SDS011;3265;42.694;23.282;2023-07-13T11:31:02;11.38;;;5.35;;
6463;SDS011;3265;42.694;23.282;2023-07-13T11:33:55;11.07;;;5.45;;
6463;SDS011;3265;42.694;23.282;2023-07-13T11:36:28;11.32;;;5.30;;
6463;SDS011;3265;42.694;23.282;2023-07-13T11:39:00;10.23;;;5.65;;
6463;SDS011;3265;42.694;23.282;2023-07-13T11:41:29;11.65;;;5.63;;
6463;SDS011;3265;42.694;23.282;2023-07-13T11:44:10;12.80;;;5.40;;
6463;SDS011;3265;42.694;23.282;2023-07-13T11:46:43;11.13;;;6.25;;
6463;SDS011;3265;42.694;23.282;2023-07-13T11:49:13;9.40;;;5.80;;
6463;SDS011;3265;42.694;23.282;2023-07-13T11:51:43;12.32;;;5.50;;
6463;SDS011;3265;42.694;23.282;2023-07-13T11:54:15;17.73;;;5.63;;
6463;SDS011;3265;42.694;23.282;2023-07-13T11:56:51;12.25;;;5.65;;
6463;SDS011;3265;42.694;23.282;2023-07-13T11:59:19;13.15;;;5.93;;
6463;SDS011;3265;42.694;23.282;2023-07-13T12:01:47;10.43;;;5.43;;
6463;SDS011;3265;42.694;23.282;2023-07-13T12:04:20;9.18;;;5.00;;
6463;SDS011;3265;42.694;23.282;2023-07-13T12:06:58;12.45;;;5.95;;
6463;SDS011;3265;42.694;23.282;2023-07-13T12:09:32;11.48;;;5.40;;
6463;SDS011;3265;42.694;23.282;2023-07-13T12:12:02;14.15;;;5.60;;
6463;SDS011;3265;42.694;23.282;2023-07-13T12:14:29;20.48;;;5.63;;
6463;SDS011;3265;42.694;23.282;2023-07-13T12:17:00;9.70;;;5.47;;
6463;SDS011;3265;42.694;23.282;2023-07-13T12:19:27;12.25;;;5.25;;
6463;SDS011;3265;42.694;23.282;2023-07-13T12:21:56;12.25;;;4.97;;
6463;SDS011;3265;42.694;23.282;2023-07-13T12:24:25;9.55;;;4.80;;
6463;SDS011;3265;42.694;23.282;2023-07-13T12:26:53;13.23;;;5.07;;
6463;SDS011;3265;42.694;23.282;2023-07-13T12:29:25;11.90;;;5.90;;
6463;SDS011;3265;42.694;23.282;2023-07-13T12:31:52;15.80;;;5.40;;
6463;SDS011;3265;42.694;23.282;2023-07-13T12:34:21;12.60;;;5.13;;
6463;SDS011;3265;42.694;23.282;2023-07-13T12:36:50;15.80;;;5.80;;
6463;SDS011;3265;42.694;23.282;2023-07-13T12:39:20;10.40;;;5.03;;
6463;SDS011;3265;42.694;23.282;2023-07-13T12:41:50;10.23;;;5.20;;
6463;SDS011;3265;42.694;23.282;2023-07-13T12:44:19;8.77;;;5.18;;
6463;SDS011;3265;42.694;23.282;2023-07-13T12:46:52;12.73;;;5.20;;
6463;SDS011;3265;42.694;23.282;2023-07-13T12:49:30;10.35;;;5.78;;
6463;SDS011;3265;42.694;23.282;2023-07-13T12:52:00;9.65;;;4.90;;
6463;SDS011;3265;42.694;23.282;2023-07-13T12:54:30;10.90;;;5.00;;
6463;SDS011;3265;42.694;23.282;2023-07-13T12:56:58;14.27;;;5.80;;
6463;SDS011;3265;42.694;23.282;2023-07-13T12:59:29;10.10;;;4.95;;
6463;SDS011;3265;42.694;23.282;2023-07-13T13:02:01;14.32;;;5.38;;
6463;SDS011;3265;42.694;23.282;2023-07-13T13:04:28;13.43;;;5.35;;
6463;SDS011;3265;42.694;23.282;2023-07-13T13:07:03;12.27;;;5.25;;
6463;SDS011;3265;42.694;23.282;2023-07-13T13:09:33;16.13;;;4.78;;
6463;SDS011;3265;42.694;23.282;2023-07-13T13:12:00;11.02;;;5.18;;
6463;SDS011;3265;42.694;23.282;2023-07-13T13:14:27;9.88;;;5.20;;
6463;SDS011;3265;42.694;23.282;2023-07-13T13:16:53;10.32;;;5.03;;
6463;SDS011;3265;42.694;23.282;2023-07-13T13:19:23;11.73;;;4.60;;
6463;SDS011;3265;42.694;23.282;2023-07-13T13:21:53;12.95;;;5.70;;
6463;SDS011;3265;42.694;23.282;2023-07-13T13:24:23;10.77;;;5.13;;
6463;SDS011;3265;42.694;23.282;2023-07-13T13:26:52;10.68;;;5.18;;
6463;SDS011;3265;42.694;23.282;2023-07-13T13:29:22;10.98;;;4.95;;
6463;SDS011;3265;42.694;23.282;2023-07-13T13:31:50;13.77;;;5.20;;
6463;SDS011;3265;42.694;23.282;2023-07-13T13:34:18;13.40;;;5.30;;
6463;SDS011;3265;42.694;23.282;2023-07-13T13:36:46;9.27;;;5.13;;
6463;SDS011;3265;42.694;23.282;2023-07-13T13:39:18;10.73;;;5.03;;
6463;SDS011;3265;42.694;23.282;2023-07-13T13:41:47;10.38;;;5.30;;
6463;SDS011;3265;42.694;23.282;2023-07-13T13:44:17;10.80;;;5.05;;
6463;SDS011;3265;42.694;23.282;2023-07-13T13:46:46;8.65;;;5.18;;
6463;SDS011;3265;42.694;23.282;2023-07-13T13:49:16;12.70;;;5.32;;
6463;SDS011;3265;42.694;23.282;2023-07-13T13:51:46;8.77;;;4.43;;
6463;SDS011;3265;42.694;23.282;2023-07-13T13:54:14;9.93;;;4.82;;
6463;SDS011;3265;42.694;23.282;2023-07-13T13:56:42;12.20;;;5.65;;
6463;SDS011;3265;42.694;23.282;2023-07-13T13:59:10;11.95;;;5.13;;
6463;SDS011;3265;42.694;23.282;2023-07-13T14:01:38;13.52;;;5.50;;
6463;SDS011;3265;42.694;23.282;2023-07-13T14:04:05;12.55;;;5.03;;
6463;SDS011;3265;42.694;23.282;2023-07-13T14:06:35;10.77;;;5.60;;
6463;SDS011;3265;42.694;23.282;2023-07-13T14:09:02;11.63;;;4.80;;
6463;SDS011;3265;42.694;23.282;2023-07-13T14:11:29;11.85;;;5.00;;
6463;SDS011;3265;42.694;23.282;2023-07-13T14:13:58;14.95;;;5.43;;
6463;SDS011;3265;42.694;23.282;2023-07-13T14:16:29;12.88;;;5.10;;
6463;SDS011;3265;42.694;23.282;2023-07-13T14:19:00;10.88;;;5.07;;
6463;SDS011;3265;42.694;23.282;2023-07-13T14:21:27;11.80;;;5.03;;
6463;SDS011;3265;42.694;23.282;2023-07-13T14:23:55;9.55;;;4.97;;
6463;SDS011;3265;42.694;23.282;2023-07-13T14:26:23;9.35;;;5.00;;
6463;SDS011;3265;42.694;23.282;2023-07-13T14:28:52;12.13;;;5.10;;
6463;SDS011;3265;42.694;23.282;2023-07-13T14:31:21;16.85;;;5.25;;
6463;SDS011;3265;42.694;23.282;2023-07-13T14:33:49;12.55;;;5.13;;
6463;SDS011;3265;42.694;23.282;2023-07-13T14:36:21;15.73;;;5.55;;
6463;SDS011;3265;42.694;23.282;2023-07-13T14:38:53;9.70;;;5.03;;
6463;SDS011;3265;42.694;23.282;2023-07-13T14:41:20;13.55;;;5.15;;
6463;SDS011;3265;42.694;23.282;2023-07-13T14:43:47;9.32;;;5.45;;
6463;SDS011;3265;42.694;23.282;2023-07-13T14:46:18;8.45;;;5.05;;
6463;SDS011;3265;42.694;23.282;2023-07-13T14:48:57;12.18;;;4.95;;
6463;SDS011;3265;42.694;23.282;2023-07-13T14:51:57;17.83;;;5.65;;
6463;SDS011;3265;42.694;23.282;2023-07-13T14:54:33;13.80;;;5.30;;
6463;SDS011;3265;42.694;23.282;2023-07-13T14:57:00;12.07;;;5.55;;